createdAt,value
2018-05-18T00:00:34.795Z,57.80
2018-05-18T00:01:12.181Z,57.80
2018-05-18T00:01:49.471Z,57.80
2018-05-18T00:02:26.946Z,57.80
2018-05-18T00:03:05.179Z,57.80
2018-05-18T00:03:42.535Z,57.80
2018-05-18T00:04:19.791Z,58.40
2018-05-18T00:04:56.996Z,57.70
2018-05-18T00:05:35.079Z,57.80
2018-05-18T00:06:12.331Z,57.70
2018-05-18T00:06:50.561Z,57.40
2018-05-18T00:07:27.782Z,57.60
2018-05-18T00:08:05.226Z,57.60
2018-05-18T00:08:42.606Z,57.70
2018-05-18T00:09:20.014Z,57.60
2018-05-18T00:09:58.138Z,57.60
2018-05-18T00:10:36.223Z,57.60
2018-05-18T00:11:14.435Z,57.60
2018-05-18T00:11:52.427Z,57.50
2018-05-18T00:12:29.783Z,57.60
2018-05-18T00:13:07.182Z,57.60
2018-05-18T00:13:45.270Z,57.60
2018-05-18T00:14:22.871Z,57.60
2018-05-18T00:15:00.947Z,57.70
2018-05-18T00:15:39.039Z,57.70
2018-05-18T00:16:16.294Z,57.70
2018-05-18T00:16:54.521Z,57.60
2018-05-18T00:17:31.973Z,57.60
2018-05-18T00:18:10.075Z,57.60
2018-05-18T00:18:48.284Z,57.60
2018-05-18T00:19:26.472Z,57.60
2018-05-18T00:20:03.801Z,57.60
2018-05-18T00:20:41.231Z,57.50
2018-05-18T00:21:18.555Z,57.60
2018-05-18T00:21:55.947Z,57.50
2018-05-18T00:22:33.410Z,57.50
2018-05-18T00:23:10.891Z,57.50
2018-05-18T00:23:48.433Z,57.40
2018-05-18T00:24:26.491Z,57.40
2018-05-18T00:25:04.607Z,57.60
2018-05-18T00:25:41.935Z,57.50
2018-05-18T00:26:19.393Z,57.40
2018-05-18T00:26:56.757Z,57.50
2018-05-18T00:27:34.167Z,57.40
2018-05-18T00:28:11.689Z,57.30
2018-05-18T00:28:49.034Z,57.40
2018-05-18T00:29:26.410Z,57.30
2018-05-18T00:30:03.721Z,57.40
2018-05-18T00:30:41.025Z,57.40
2018-05-18T00:31:19.094Z,57.20
2018-05-18T00:31:56.440Z,57.10
2018-05-18T00:32:34.538Z,57.30
2018-05-18T00:33:11.995Z,57.30
2018-05-18T00:33:49.391Z,57.30
2018-05-18T00:34:27.386Z,57.40
2018-05-18T00:35:05.681Z,57.40
2018-05-18T00:35:42.993Z,57.40
2018-05-18T00:36:21.080Z,57.50
2018-05-18T00:36:58.357Z,57.50
2018-05-18T00:37:35.563Z,57.70
2018-05-18T00:38:13.808Z,57.40
2018-05-18T00:38:51.043Z,57.40
2018-05-18T00:39:28.301Z,57.40
2018-05-18T00:40:05.801Z,57.50
2018-05-18T00:40:44.011Z,57.50
2018-05-18T00:41:22.108Z,57.30
2018-05-18T00:41:59.460Z,57.30
2018-05-18T00:42:37.587Z,57.40
2018-05-18T00:43:14.933Z,57.40
2018-05-18T00:43:52.321Z,57.40
2018-05-18T00:44:29.513Z,57.40
2018-05-18T00:45:07.606Z,57.30
2018-05-18T00:45:44.980Z,57.90
2018-05-18T00:46:22.204Z,57.40
2018-05-18T00:47:00.345Z,57.50
2018-05-18T00:47:37.695Z,57.40
2018-05-18T00:48:15.727Z,57.40
2018-05-18T00:48:52.945Z,57.30
2018-05-18T00:49:30.209Z,57.30
2018-05-18T00:50:07.667Z,57.40
2018-05-18T00:50:45.290Z,57.30
2018-05-18T00:51:22.702Z,57.30
2018-05-18T00:52:00.035Z,57.20
2018-05-18T00:52:37.556Z,57.30
2018-05-18T00:53:15.947Z,57.30
2018-05-18T00:53:54.040Z,57.20
2018-05-18T00:54:31.312Z,57.20
2018-05-18T00:55:08.696Z,57.10
2018-05-18T00:55:46.146Z,57.20
2018-05-18T00:56:23.555Z,57.10
2018-05-18T00:57:01.184Z,57.10
2018-05-18T00:57:39.293Z,57.20
2018-05-18T00:58:16.567Z,57.20
2018-05-18T00:58:55.006Z,57.20
2018-05-18T00:59:33.089Z,57.30
2018-05-18T01:00:10.469Z,57.20
2018-05-18T01:00:47.816Z,57.10
2018-05-18T01:01:25.074Z,57.10
2018-05-18T01:02:02.595Z,57.10
2018-05-18T01:02:39.971Z,57.10
2018-05-18T01:03:17.213Z,57.00
2018-05-18T01:03:54.510Z,57.00
2018-05-18T01:04:31.781Z,57.00
2018-05-18T01:05:09.164Z,57.00
2018-05-18T01:05:46.501Z,57.00
2018-05-18T01:06:23.747Z,57.00
2018-05-18T01:07:01.836Z,57.00
2018-05-18T01:07:39.365Z,57.00
2018-05-18T01:08:16.970Z,56.90
2018-05-18T01:08:54.214Z,56.90
2018-05-18T01:09:31.689Z,56.90
2018-05-18T01:10:09.097Z,57.00
2018-05-18T01:10:46.514Z,57.00
2018-05-18T01:11:24.582Z,57.00
2018-05-18T01:12:02.698Z,57.00
2018-05-18T01:12:39.905Z,57.00
2018-05-18T01:13:18.051Z,57.00
2018-05-18T01:13:56.148Z,57.20
2018-05-18T01:14:34.114Z,57.10
2018-05-18T01:15:11.474Z,57.10
2018-05-18T01:15:48.799Z,57.10
2018-05-18T01:16:27.068Z,57.00
2018-05-18T01:17:04.513Z,57.00
2018-05-18T01:17:42.022Z,57.10
2018-05-18T01:18:19.296Z,57.00
2018-05-18T01:18:57.502Z,57.10
2018-05-18T01:19:34.884Z,57.10
2018-05-18T01:20:12.980Z,57.00
2018-05-18T01:20:50.198Z,56.90
2018-05-18T01:21:27.634Z,57.00
2018-05-18T01:22:05.614Z,57.00
2018-05-18T01:22:42.981Z,56.90
2018-05-18T01:23:20.429Z,57.00
2018-05-18T01:23:57.942Z,56.90
2018-05-18T01:24:35.410Z,56.90
2018-05-18T01:25:12.818Z,57.00
2018-05-18T01:25:50.931Z,57.00
2018-05-18T01:26:29.202Z,57.00
2018-05-18T01:27:06.439Z,57.00
2018-05-18T01:27:43.705Z,57.00
2018-05-18T01:28:21.967Z,56.90
2018-05-18T01:28:59.345Z,56.90
2018-05-18T01:29:36.591Z,57.00
2018-05-18T01:30:14.815Z,57.00
2018-05-18T01:30:53.007Z,57.00
2018-05-18T01:31:30.387Z,56.90
2018-05-18T01:32:07.733Z,56.90
2018-05-18T01:32:45.173Z,56.90
2018-05-18T01:33:22.716Z,56.90
2018-05-18T01:34:00.403Z,56.90
2018-05-18T01:34:38.465Z,56.80
2018-05-18T01:35:15.791Z,56.80
2018-05-18T01:35:53.213Z,56.80
2018-05-18T01:36:31.291Z,56.80
2018-05-18T01:37:09.357Z,56.80
2018-05-18T01:37:46.764Z,56.80
2018-05-18T01:38:24.159Z,56.80
2018-05-18T01:39:02.241Z,56.90
2018-05-18T01:39:40.486Z,56.90
2018-05-18T01:40:18.550Z,56.90
2018-05-18T01:40:55.966Z,56.90
2018-05-18T01:41:34.136Z,56.90
2018-05-18T01:42:11.595Z,56.90
2018-05-18T01:42:49.632Z,56.90
2018-05-18T01:43:27.109Z,56.80
2018-05-18T01:44:04.559Z,56.90
2018-05-18T01:44:41.905Z,56.90
2018-05-18T01:45:19.372Z,56.90
2018-05-18T01:45:56.810Z,56.80
2018-05-18T01:46:34.191Z,56.90
2018-05-18T01:47:12.469Z,57.00
2018-05-18T01:47:50.443Z,57.10
2018-05-18T01:48:27.857Z,57.10
2018-05-18T01:49:05.146Z,56.90
2018-05-18T01:49:43.321Z,57.10
2018-05-18T01:50:20.773Z,57.00
2018-05-18T01:50:58.997Z,57.00
2018-05-18T01:51:36.585Z,57.00
2018-05-18T01:52:14.642Z,57.00
2018-05-18T01:52:52.024Z,57.00
2018-05-18T01:53:29.267Z,57.00
2018-05-18T01:54:07.298Z,57.00
2018-05-18T01:54:45.363Z,57.50
2018-05-18T01:55:23.538Z,56.90
2018-05-18T01:56:00.866Z,56.90
2018-05-18T01:56:38.460Z,56.90
2018-05-18T01:57:15.788Z,56.90
2018-05-18T01:57:53.285Z,56.90
2018-05-18T01:58:30.627Z,57.00
2018-05-18T01:59:08.174Z,56.90
2018-05-18T01:59:46.214Z,56.80
2018-05-18T02:00:24.423Z,56.80
2018-05-18T02:01:01.675Z,56.80
2018-05-18T02:01:40.026Z,56.90
2018-05-18T02:02:17.389Z,56.90
2018-05-18T02:02:54.860Z,56.90
2018-05-18T02:03:33.002Z,57.00
2018-05-18T02:04:11.321Z,56.90
2018-05-18T02:04:48.630Z,56.90
2018-05-18T02:05:26.840Z,56.90
2018-05-18T02:06:04.188Z,56.80
2018-05-18T02:06:41.645Z,56.80
2018-05-18T02:07:19.064Z,56.80
2018-05-18T02:07:56.506Z,56.80
2018-05-18T02:08:33.955Z,56.80
2018-05-18T02:09:11.372Z,56.80
2018-05-18T02:09:48.802Z,56.80
2018-05-18T02:10:26.199Z,56.90
2018-05-18T02:11:04.457Z,56.90
2018-05-18T02:11:42.638Z,56.80
2018-05-18T02:12:20.609Z,57.50
2018-05-18T02:12:57.872Z,56.90
2018-05-18T02:13:35.287Z,56.80
2018-05-18T02:14:13.379Z,57.50
2018-05-18T02:14:50.804Z,56.90
2018-05-18T02:15:28.293Z,56.70
2018-05-18T02:16:05.612Z,56.70
2018-05-18T02:16:42.988Z,56.80
2018-05-18T02:17:21.086Z,56.90
2018-05-18T02:17:58.417Z,56.80
2018-05-18T02:18:35.874Z,56.80
2018-05-18T02:19:13.185Z,56.70
2018-05-18T02:19:50.527Z,56.90
2018-05-18T02:20:28.029Z,56.90
2018-05-18T02:21:05.383Z,56.90
2018-05-18T02:21:42.607Z,57.00
2018-05-18T02:22:20.687Z,57.00
2018-05-18T02:22:58.704Z,57.00
2018-05-18T02:23:36.128Z,56.90
2018-05-18T02:24:13.595Z,57.00
2018-05-18T02:24:51.893Z,57.00
2018-05-18T02:25:29.369Z,56.90
2018-05-18T02:26:07.536Z,57.00
2018-05-18T02:26:44.796Z,57.00
2018-05-18T02:27:22.880Z,57.50
2018-05-18T02:28:01.081Z,57.00
2018-05-18T02:28:38.322Z,56.90
2018-05-18T02:29:15.609Z,56.90
2018-05-18T02:29:54.041Z,56.90
2018-05-18T02:30:32.840Z,56.90
2018-05-18T02:31:10.283Z,56.90
2018-05-18T02:31:48.560Z,57.00
2018-05-18T02:32:25.744Z,56.90
2018-05-18T02:33:03.026Z,57.00
2018-05-18T02:33:40.455Z,57.00
2018-05-18T02:34:18.538Z,57.00
2018-05-18T02:34:56.085Z,57.00
2018-05-18T02:35:33.299Z,56.90
2018-05-18T02:36:11.368Z,56.90
2018-05-18T02:36:49.482Z,56.90
2018-05-18T02:37:27.792Z,56.90
2018-05-18T02:38:05.198Z,56.80
2018-05-18T02:38:43.452Z,57.00
2018-05-18T02:39:20.815Z,56.80
2018-05-18T02:39:58.899Z,56.90
2018-05-18T02:40:37.009Z,57.00
2018-05-18T02:41:14.392Z,56.90
2018-05-18T02:41:52.466Z,56.80
2018-05-18T02:42:29.815Z,56.80
2018-05-18T02:43:07.011Z,57.00
2018-05-18T02:43:45.167Z,56.90
2018-05-18T02:44:22.670Z,56.90
2018-05-18T02:45:00.908Z,56.90
2018-05-18T02:45:38.357Z,56.90
2018-05-18T02:46:15.783Z,56.90
2018-05-18T02:46:53.847Z,56.90
2018-05-18T02:47:31.189Z,56.90
2018-05-18T02:48:08.670Z,56.90
2018-05-18T02:48:46.807Z,57.50
2018-05-18T02:49:24.239Z,56.90
2018-05-18T02:50:01.610Z,56.90
2018-05-18T02:50:39.139Z,56.90
2018-05-18T02:51:17.250Z,56.90
2018-05-18T02:51:54.491Z,56.90
2018-05-18T02:52:32.599Z,57.00
2018-05-18T02:53:10.003Z,56.90
2018-05-18T02:53:48.155Z,56.90
2018-05-18T02:54:25.574Z,56.90
2018-05-18T02:55:03.570Z,57.00
2018-05-18T02:55:40.749Z,57.00
2018-05-18T02:56:19.029Z,56.90
2018-05-18T02:56:56.351Z,56.90
2018-05-18T02:57:33.782Z,56.90
2018-05-18T02:58:11.100Z,56.80
2018-05-18T02:58:49.293Z,57.00
2018-05-18T02:59:27.403Z,57.60
2018-05-18T03:00:05.505Z,57.00
2018-05-18T03:00:42.846Z,56.90
2018-05-18T03:01:20.269Z,56.90
2018-05-18T03:01:58.333Z,56.80
2018-05-18T03:02:36.516Z,57.00
2018-05-18T03:03:13.834Z,57.00
2018-05-18T03:03:51.074Z,56.90
2018-05-18T03:04:29.221Z,56.90
2018-05-18T03:05:06.534Z,56.80
2018-05-18T03:05:43.792Z,56.80
2018-05-18T03:06:22.021Z,56.90
2018-05-18T03:06:59.294Z,56.80
2018-05-18T03:07:36.538Z,56.90
2018-05-18T03:08:13.999Z,56.90
2018-05-18T03:08:52.230Z,57.00
2018-05-18T03:09:29.585Z,57.00
2018-05-18T03:10:07.052Z,57.00
2018-05-18T03:10:45.213Z,57.00
2018-05-18T03:11:22.464Z,57.00
2018-05-18T03:11:59.842Z,57.00
2018-05-18T03:12:37.145Z,56.90
2018-05-18T03:13:15.235Z,57.30
2018-05-18T03:13:52.627Z,56.90
2018-05-18T03:14:29.834Z,56.90
2018-05-18T03:15:07.187Z,56.90
2018-05-18T03:15:44.446Z,56.90
2018-05-18T03:16:22.598Z,56.90
2018-05-18T03:16:59.927Z,56.90
2018-05-18T03:17:37.378Z,56.90
2018-05-18T03:18:15.476Z,57.00
2018-05-18T03:18:52.833Z,57.00
2018-05-18T03:19:30.918Z,56.60
2018-05-18T03:20:08.185Z,56.50
2018-05-18T03:20:45.318Z,57.00
2018-05-18T03:21:23.559Z,59.60
2018-05-18T03:22:00.929Z,59.60
2018-05-18T03:22:39.031Z,60.90
2018-05-18T03:23:16.308Z,60.90
2018-05-18T03:23:53.646Z,61.20
2018-05-18T03:24:30.950Z,61.20
2018-05-18T03:25:09.041Z,58.40
2018-05-18T03:25:46.449Z,58.30
2018-05-18T03:26:23.676Z,59.70
2018-05-18T03:27:00.892Z,61.80
2018-05-18T03:27:38.865Z,61.10
2018-05-18T03:28:16.237Z,61.10
2018-05-18T03:28:54.327Z,60.00
2018-05-18T03:29:31.674Z,59.90
2018-05-18T03:30:09.089Z,59.60
2018-05-18T03:30:48.105Z,60.00
2018-05-18T03:31:25.463Z,59.80
2018-05-18T03:32:02.731Z,60.30
2018-05-18T03:32:41.062Z,60.50
2018-05-18T03:33:18.396Z,60.50
2018-05-18T03:33:55.745Z,60.70
2018-05-18T03:34:33.068Z,60.10
2018-05-18T03:35:10.471Z,60.60
2018-05-18T03:35:47.623Z,60.10
2018-05-18T03:36:24.990Z,60.30
2018-05-18T03:37:02.446Z,60.20
2018-05-18T03:37:40.679Z,59.80
2018-05-18T03:38:18.029Z,59.80
2018-05-18T03:38:56.139Z,60.50
2018-05-18T03:39:34.144Z,60.70
2018-05-18T03:40:12.173Z,60.10
2018-05-18T03:40:49.478Z,60.00
2018-05-18T03:41:26.885Z,60.30
2018-05-18T03:42:04.337Z,60.40
2018-05-18T03:42:41.752Z,60.30
2018-05-18T03:43:19.817Z,59.80
2018-05-18T03:43:57.158Z,59.80
2018-05-18T03:44:34.588Z,60.20
2018-05-18T03:45:12.658Z,60.20
2018-05-18T03:45:50.064Z,60.10
2018-05-18T03:46:28.288Z,60.20
2018-05-18T03:47:05.573Z,60.10
2018-05-18T03:47:43.698Z,60.40
2018-05-18T03:48:20.933Z,60.30
2018-05-18T03:48:58.208Z,59.80
2018-05-18T03:49:35.398Z,60.30
2018-05-18T03:50:13.648Z,60.50
2018-05-18T03:50:50.998Z,60.50
2018-05-18T03:51:29.205Z,60.40
2018-05-18T03:52:06.421Z,60.40
2018-05-18T03:52:44.602Z,60.00
2018-05-18T03:53:22.870Z,60.00
2018-05-18T03:54:00.098Z,60.00
2018-05-18T03:54:37.335Z,59.90
2018-05-18T03:55:15.409Z,59.80
2018-05-18T03:55:52.745Z,59.80
2018-05-18T03:56:30.051Z,59.70
2018-05-18T03:57:07.460Z,59.60
2018-05-18T03:57:44.719Z,59.70
2018-05-18T03:58:22.187Z,59.50
2018-05-18T03:59:00.295Z,59.20
2018-05-18T03:59:38.254Z,59.50
2018-05-18T04:00:15.684Z,59.40
2018-05-18T04:00:53.130Z,59.60
2018-05-18T04:01:30.455Z,59.30
2018-05-18T04:02:07.839Z,59.50
2018-05-18T04:02:45.222Z,59.30
2018-05-18T04:03:23.477Z,59.10
2018-05-18T04:04:00.932Z,59.10
2018-05-18T04:04:38.259Z,58.90
2018-05-18T04:05:16.337Z,58.90
2018-05-18T04:05:53.614Z,58.90
2018-05-18T04:06:31.671Z,59.00
2018-05-18T04:07:09.856Z,58.80
2018-05-18T04:07:47.347Z,58.80
2018-05-18T04:08:25.638Z,58.80
2018-05-18T04:09:03.723Z,59.00
2018-05-18T04:09:41.949Z,58.70
2018-05-18T04:10:19.256Z,58.70
2018-05-18T04:10:56.702Z,58.70
2018-05-18T04:11:34.776Z,58.70
2018-05-18T04:12:12.130Z,58.70
2018-05-18T04:12:49.495Z,58.90
2018-05-18T04:13:26.970Z,58.90
2018-05-18T04:14:04.250Z,58.80
2018-05-18T04:14:42.254Z,58.70
2018-05-18T04:15:20.425Z,59.30
2018-05-18T04:15:58.551Z,58.70
2018-05-18T04:16:35.887Z,58.70
2018-05-18T04:17:13.237Z,58.80
2018-05-18T04:17:51.320Z,58.70
2018-05-18T04:18:28.620Z,58.70
2018-05-18T04:19:05.810Z,58.30
2018-05-18T04:19:44.063Z,58.50
2018-05-18T04:20:21.422Z,58.40
2018-05-18T04:20:58.911Z,58.30
2018-05-18T04:21:36.978Z,58.20
2018-05-18T04:22:14.358Z,58.20
2018-05-18T04:22:52.553Z,58.20
2018-05-18T04:23:30.578Z,58.30
2018-05-18T04:24:07.854Z,58.30
2018-05-18T04:24:45.822Z,58.20
2018-05-18T04:25:23.189Z,58.20
2018-05-18T04:26:01.417Z,58.30
2018-05-18T04:26:38.785Z,58.30
2018-05-18T04:27:16.070Z,58.20
2018-05-18T04:27:54.140Z,57.90
2018-05-18T04:28:32.254Z,58.30
2018-05-18T04:29:09.687Z,58.20
2018-05-18T04:29:47.115Z,58.20
2018-05-18T04:30:24.659Z,58.10
2018-05-18T04:31:02.942Z,58.70
2018-05-18T04:31:40.960Z,58.10
2018-05-18T04:32:19.028Z,58.10
2018-05-18T04:32:57.149Z,58.10
2018-05-18T04:33:34.389Z,58.10
2018-05-18T04:34:11.795Z,57.80
2018-05-18T04:34:49.782Z,58.10
2018-05-18T04:35:27.176Z,58.10
2018-05-18T04:36:04.304Z,57.80
2018-05-18T04:36:41.607Z,58.10
2018-05-18T04:37:18.978Z,58.00
2018-05-18T04:37:56.428Z,57.90
2018-05-18T04:38:34.746Z,58.10
2018-05-18T04:39:12.070Z,58.10
2018-05-18T04:39:50.142Z,57.90
2018-05-18T04:40:28.137Z,58.00
2018-05-18T04:41:06.215Z,57.90
2018-05-18T04:41:44.440Z,58.10
2018-05-18T04:42:21.833Z,58.00
2018-05-18T04:42:59.053Z,58.10
2018-05-18T04:43:37.143Z,57.90
2018-05-18T04:44:15.339Z,57.80
2018-05-18T04:44:52.786Z,57.80
2018-05-18T04:45:30.250Z,57.80
2018-05-18T04:46:07.661Z,57.70
2018-05-18T04:46:45.908Z,57.80
2018-05-18T04:47:23.873Z,57.80
2018-05-18T04:48:01.087Z,57.80
2018-05-18T04:48:38.333Z,58.40
2018-05-18T04:49:16.298Z,57.80
2018-05-18T04:49:53.622Z,57.70
2018-05-18T04:50:30.847Z,57.90
2018-05-18T04:51:08.191Z,57.70
2018-05-18T04:51:45.528Z,57.70
2018-05-18T04:52:23.594Z,57.70
2018-05-18T04:53:00.854Z,57.70
2018-05-18T04:53:38.321Z,57.70
2018-05-18T04:54:15.745Z,57.60
2018-05-18T04:54:53.803Z,57.60
2018-05-18T04:55:31.831Z,57.60
2018-05-18T04:56:09.109Z,57.60
2018-05-18T04:56:46.312Z,57.60
2018-05-18T04:57:24.389Z,57.50
2018-05-18T04:58:01.671Z,57.50
2018-05-18T04:58:39.072Z,57.60
2018-05-18T04:59:17.128Z,57.60
2018-05-18T04:59:54.550Z,57.60
2018-05-18T05:00:31.980Z,57.60
2018-05-18T05:01:10.254Z,57.50
2018-05-18T05:01:48.235Z,57.60
2018-05-18T05:02:26.326Z,57.60
2018-05-18T05:03:03.766Z,57.60
2018-05-18T05:03:42.037Z,57.50
2018-05-18T05:04:20.099Z,57.40
2018-05-18T05:04:57.526Z,57.40
2018-05-18T05:05:35.688Z,57.40
2018-05-18T05:06:14.070Z,57.50
2018-05-18T05:06:51.290Z,57.50
2018-05-18T05:07:29.434Z,57.30
2018-05-18T05:08:06.809Z,57.30
2018-05-18T05:08:45.115Z,57.30
2018-05-18T05:09:22.570Z,57.30
2018-05-18T05:10:00.078Z,57.30
2018-05-18T05:10:37.455Z,57.30
2018-05-18T05:11:14.747Z,57.40
2018-05-18T05:11:52.053Z,57.50
2018-05-18T05:12:30.385Z,57.30
2018-05-18T05:13:08.780Z,57.10
2018-05-18T05:13:46.894Z,57.30
2018-05-18T05:14:24.109Z,57.20
2018-05-18T05:15:01.458Z,57.30
2018-05-18T05:15:38.971Z,57.30
2018-05-18T05:16:16.536Z,57.10
2018-05-18T05:16:54.680Z,57.10
2018-05-18T05:17:32.761Z,57.10
2018-05-18T05:18:10.125Z,57.10
2018-05-18T05:18:47.448Z,57.10
2018-05-18T05:19:24.774Z,57.10
2018-05-18T05:20:02.194Z,57.20
2018-05-18T05:20:39.412Z,57.20
2018-05-18T05:21:17.672Z,57.20
2018-05-18T05:21:55.028Z,57.10
2018-05-18T05:22:33.241Z,57.10
2018-05-18T05:23:10.632Z,57.10
2018-05-18T05:23:47.975Z,57.20
2018-05-18T05:24:25.551Z,57.20
2018-05-18T05:25:03.060Z,57.20
2018-05-18T05:25:40.269Z,57.20
2018-05-18T05:26:18.514Z,57.20
2018-05-18T05:26:55.856Z,57.10
2018-05-18T05:27:33.181Z,57.00
2018-05-18T05:28:11.367Z,57.10
2018-05-18T05:28:48.664Z,57.10
2018-05-18T05:29:25.967Z,57.10
2018-05-18T05:30:04.124Z,57.00
2018-05-18T05:30:42.294Z,57.00
2018-05-18T05:31:19.759Z,57.10
2018-05-18T05:31:57.888Z,57.10
2018-05-18T05:32:35.139Z,57.10
2018-05-18T05:33:12.383Z,57.10
2018-05-18T05:33:50.517Z,57.10
2018-05-18T05:34:27.812Z,57.10
2018-05-18T05:35:05.210Z,57.00
2018-05-18T05:35:43.351Z,57.00
2018-05-18T05:36:21.443Z,57.00
2018-05-18T05:36:58.870Z,57.00
2018-05-18T05:37:36.923Z,57.10
2018-05-18T05:38:14.141Z,57.10
2018-05-18T05:38:51.623Z,57.00
2018-05-18T05:39:29.862Z,57.10
2018-05-18T05:40:08.071Z,56.80
2018-05-18T05:40:45.454Z,56.80
2018-05-18T05:41:23.537Z,56.80
2018-05-18T05:42:01.646Z,56.80
2018-05-18T05:42:39.865Z,56.90
2018-05-18T05:43:17.436Z,56.70
2018-05-18T05:43:54.694Z,56.80
2018-05-18T05:44:32.679Z,56.70
2018-05-18T05:45:10.007Z,56.70
2018-05-18T05:45:47.589Z,56.80
2018-05-18T05:46:24.829Z,56.80
2018-05-18T05:47:02.339Z,56.90
2018-05-18T05:47:39.746Z,56.80
2018-05-18T05:48:17.081Z,56.80
2018-05-18T05:48:54.263Z,56.90
2018-05-18T05:49:32.518Z,56.70
2018-05-18T05:50:09.928Z,56.70
2018-05-18T05:50:47.256Z,56.70
2018-05-18T05:51:25.351Z,56.70
2018-05-18T05:52:03.565Z,56.70
2018-05-18T05:52:40.769Z,56.70
2018-05-18T05:53:18.047Z,56.70
2018-05-18T05:53:56.182Z,56.80
2018-05-18T05:54:34.590Z,56.70
2018-05-18T05:55:12.673Z,56.80
2018-05-18T05:55:50.147Z,56.80
2018-05-18T05:56:27.537Z,56.90
2018-05-18T05:57:04.828Z,56.70
2018-05-18T05:57:42.130Z,56.80
2018-05-18T05:58:20.381Z,56.70
2018-05-18T05:58:58.585Z,56.70
2018-05-18T05:59:36.674Z,56.50
2018-05-18T06:00:14.651Z,56.70
2018-05-18T06:00:51.996Z,56.80
2018-05-18T06:01:29.348Z,56.70
2018-05-18T06:02:06.760Z,56.60
2018-05-18T06:02:44.775Z,56.60
2018-05-18T06:03:22.195Z,56.50
2018-05-18T06:04:00.250Z,56.60
2018-05-18T06:04:37.558Z,56.60
2018-05-18T06:05:14.973Z,56.60
2018-05-18T06:05:53.183Z,56.60
2018-05-18T06:06:31.415Z,56.50
2018-05-18T06:07:09.481Z,56.70
2018-05-18T06:07:46.706Z,56.60
2018-05-18T06:08:24.131Z,56.60
2018-05-18T06:09:02.238Z,56.40
2018-05-18T06:09:39.479Z,56.40
2018-05-18T06:10:17.689Z,56.50
2018-05-18T06:10:55.074Z,56.50
2018-05-18T06:11:33.208Z,56.50
2018-05-18T06:12:11.390Z,56.50
2018-05-18T06:12:48.873Z,56.50
2018-05-18T06:13:26.199Z,57.20
2018-05-18T06:14:03.417Z,56.60
2018-05-18T06:14:41.489Z,56.40
2018-05-18T06:15:19.582Z,56.50
2018-05-18T06:15:56.791Z,56.50
2018-05-18T06:16:34.200Z,56.30
2018-05-18T06:17:12.424Z,56.40
2018-05-18T06:17:49.700Z,56.40
2018-05-18T06:18:27.798Z,56.30
2018-05-18T06:19:05.146Z,56.30
2018-05-18T06:19:42.437Z,56.30
2018-05-18T06:20:20.615Z,56.30
2018-05-18T06:20:57.919Z,56.90
2018-05-18T06:21:35.353Z,56.30
2018-05-18T06:22:12.940Z,56.40
2018-05-18T06:22:50.221Z,56.40
2018-05-18T06:23:27.499Z,56.30
2018-05-18T06:24:04.820Z,56.50
2018-05-18T06:24:42.040Z,56.40
2018-05-18T06:25:19.522Z,56.50
2018-05-18T06:25:57.535Z,56.30
2018-05-18T06:26:35.040Z,56.30
2018-05-18T06:27:12.419Z,56.30
2018-05-18T06:27:50.525Z,56.30
2018-05-18T06:28:28.592Z,56.30
2018-05-18T06:29:05.799Z,56.40
2018-05-18T06:29:43.249Z,56.40
2018-05-18T06:30:21.323Z,56.40
2018-05-18T06:30:58.686Z,56.40
2018-05-18T06:31:36.106Z,56.20
2018-05-18T06:32:13.325Z,56.40
2018-05-18T06:32:50.746Z,56.30
2018-05-18T06:33:27.964Z,56.20
2018-05-18T06:34:05.434Z,56.30
2018-05-18T06:34:42.885Z,56.20
2018-05-18T06:35:20.353Z,56.20
2018-05-18T06:35:57.639Z,56.30
2018-05-18T06:36:35.714Z,56.30
2018-05-18T06:37:13.819Z,56.30
2018-05-18T06:37:51.156Z,56.30
2018-05-18T06:38:28.291Z,56.20
2018-05-18T06:39:06.529Z,56.40
2018-05-18T06:39:43.923Z,56.30
2018-05-18T06:40:22.011Z,56.30
2018-05-18T06:40:59.362Z,56.30
2018-05-18T06:41:36.701Z,56.40
2018-05-18T06:42:14.745Z,56.40
2018-05-18T06:42:51.996Z,56.40
2018-05-18T06:43:29.401Z,56.20
2018-05-18T06:44:07.522Z,56.20
2018-05-18T06:44:44.747Z,56.20
2018-05-18T06:45:22.090Z,56.20
2018-05-18T06:46:00.134Z,56.30
2018-05-18T06:46:37.489Z,56.30
2018-05-18T06:47:15.609Z,56.30
2018-05-18T06:47:52.822Z,56.30
2018-05-18T06:48:30.906Z,56.30
2018-05-18T06:49:08.838Z,56.30
2018-05-18T06:49:47.084Z,56.30
2018-05-18T06:50:25.046Z,56.20
2018-05-18T06:51:02.467Z,56.20
2018-05-18T06:51:40.642Z,56.80
2018-05-18T06:52:17.894Z,56.20
2018-05-18T06:52:55.191Z,56.20
2018-05-18T06:53:33.244Z,56.10
2018-05-18T06:54:11.450Z,56.00
2018-05-18T06:54:48.722Z,56.00
2018-05-18T06:55:27.205Z,56.10
2018-05-18T06:56:04.635Z,56.10
2018-05-18T06:56:42.043Z,56.20
2018-05-18T06:57:20.112Z,56.00
2018-05-18T06:57:57.543Z,56.00
2018-05-18T06:58:35.566Z,56.00
2018-05-18T06:59:13.631Z,55.90
2018-05-18T06:59:51.745Z,56.10
2018-05-18T07:00:29.075Z,56.10
2018-05-18T07:01:06.269Z,56.10
2018-05-18T07:01:43.584Z,56.00
2018-05-18T07:02:21.648Z,56.20
2018-05-18T07:02:59.731Z,56.10
2018-05-18T07:03:37.203Z,56.10
2018-05-18T07:04:14.596Z,56.20
2018-05-18T07:04:51.842Z,56.00
2018-05-18T07:05:29.305Z,56.10
2018-05-18T07:06:06.739Z,56.00
2018-05-18T07:06:44.130Z,56.10
2018-05-18T07:07:21.560Z,56.20
2018-05-18T07:07:58.905Z,56.00
2018-05-18T07:08:37.059Z,55.80
2018-05-18T07:09:14.277Z,55.80
2018-05-18T07:09:51.717Z,55.80
2018-05-18T07:10:29.226Z,55.70
2018-05-18T07:11:07.381Z,55.80
2018-05-18T07:11:45.462Z,55.80
2018-05-18T07:12:22.775Z,55.80
2018-05-18T07:13:01.027Z,55.80
2018-05-18T07:13:38.486Z,55.80
2018-05-18T07:14:15.957Z,55.70
2018-05-18T07:14:53.335Z,55.70
2018-05-18T07:15:30.597Z,55.60
2018-05-18T07:16:08.885Z,55.60
2018-05-18T07:16:47.051Z,55.70
2018-05-18T07:17:24.365Z,55.50
2018-05-18T07:18:02.336Z,55.40
2018-05-18T07:18:40.502Z,55.60
2018-05-18T07:19:17.945Z,55.40
2018-05-18T07:19:55.265Z,55.30
2018-05-18T07:20:32.495Z,55.30
2018-05-18T07:21:09.911Z,55.30
2018-05-18T07:21:47.264Z,55.20
2018-05-18T07:22:25.488Z,55.20
2018-05-18T07:23:02.985Z,55.20
2018-05-18T07:23:40.496Z,55.30
2018-05-18T07:24:17.962Z,55.40
2018-05-18T07:24:56.214Z,55.50
2018-05-18T07:25:33.557Z,55.50
2018-05-18T07:26:11.070Z,55.20
2018-05-18T07:26:49.151Z,55.20
2018-05-18T07:27:27.359Z,55.30
2018-05-18T07:28:04.774Z,55.30
2018-05-18T07:28:42.035Z,55.20
2018-05-18T07:29:19.262Z,55.10
2018-05-18T07:29:57.568Z,55.20
2018-05-18T07:30:35.855Z,55.00
2018-05-18T07:31:13.439Z,55.00
2018-05-18T07:31:50.814Z,55.00
2018-05-18T07:32:28.806Z,55.20
2018-05-18T07:33:07.002Z,55.10
2018-05-18T07:33:44.997Z,55.00
2018-05-18T07:34:23.216Z,55.00
2018-05-18T07:35:01.310Z,55.00
2018-05-18T07:35:39.494Z,54.90
2018-05-18T07:36:16.938Z,54.90
2018-05-18T07:36:54.525Z,54.90
2018-05-18T07:37:31.943Z,54.90
2018-05-18T07:38:09.365Z,54.90
2018-05-18T07:38:46.836Z,54.90
2018-05-18T07:39:24.306Z,54.70
2018-05-18T07:40:02.579Z,54.60
2018-05-18T07:40:40.749Z,54.70
2018-05-18T07:41:17.990Z,54.60
2018-05-18T07:41:55.346Z,54.50
2018-05-18T07:42:32.850Z,54.60
2018-05-18T07:43:10.071Z,54.70
2018-05-18T07:43:47.639Z,54.70
2018-05-18T07:44:25.090Z,54.40
2018-05-18T07:45:03.306Z,54.30
2018-05-18T07:45:41.502Z,54.20
2018-05-18T07:46:19.642Z,54.10
2018-05-18T07:46:56.994Z,54.00
2018-05-18T07:47:35.077Z,54.00
2018-05-18T07:48:12.431Z,53.90
2018-05-18T07:48:50.543Z,54.00
2018-05-18T07:49:27.918Z,54.00
2018-05-18T07:50:05.314Z,54.00
2018-05-18T07:50:42.838Z,53.90
2018-05-18T07:51:20.993Z,53.80
2018-05-18T07:51:58.365Z,53.80
2018-05-18T07:52:35.811Z,54.00
2018-05-18T07:53:13.266Z,54.10
2018-05-18T07:53:50.712Z,54.20
2018-05-18T07:54:28.082Z,54.20
2018-05-18T07:55:06.148Z,54.30
2018-05-18T07:55:44.370Z,54.40
2018-05-18T07:56:22.476Z,54.50
2018-05-18T07:56:59.791Z,54.40
2018-05-18T07:57:38.015Z,54.00
2018-05-18T07:58:15.316Z,54.00
2018-05-18T07:58:53.473Z,53.80
2018-05-18T07:59:31.743Z,53.70
2018-05-18T08:00:09.989Z,53.70
2018-05-18T08:00:47.340Z,53.60
2018-05-18T08:01:24.714Z,53.60
2018-05-18T08:02:02.918Z,54.40
2018-05-18T08:02:40.344Z,53.80
2018-05-18T08:03:18.597Z,53.80
2018-05-18T08:03:56.696Z,54.40
2018-05-18T08:04:33.927Z,53.80
2018-05-18T08:05:11.269Z,53.90